Time;durP1;ratioP1;P1;durP2;ratioP2;P2;SDS_P1;SDS_P2;PMS_P1;PMS_P2;Temp;Humidity;BMP_temperature;BMP_pressure;BME280_temperature;BME280_humidity;BME280_pressure;Samples;Min_cycle;Max_cycle;Signal;HPM_P1;HPM_P2
2021/12/14 00:00:25;;;;;;;7.87;4.93;;;0.90;99.90;;;;;;4142159;28;20259;-62
2021/12/14 00:02:28;;;;;;;6.67;4.83;;;0.90;99.90;;;;;;4142535;28;20271;-62
2021/12/14 00:04:33;;;;;;;9.83;5.23;;;0.90;99.90;;;;;;4142852;28;20816;-61
2021/12/14 00:06:41;;;;;;;9.20;5.27;;;0.90;99.90;;;;;;4142114;28;20328;-61
2021/12/14 00:08:57;;;;;;;7.30;4.40;;;1.00;99.90;;;;;;4141910;28;20283;-62
2021/12/14 00:11:52;;;;;;;7.47;4.47;;;0.90;99.90;;;;;;4140679;28;20370;-61
2021/12/14 00:13:47;;;;;;;7.77;4.97;;;0.90;99.90;;;;;;4137571;28;20324;-62
2021/12/14 00:15:50;;;;;;;7.40;4.20;;;0.80;99.90;;;;;;4142584;28;21313;-61
2021/12/14 00:17:58;;;;;;;8.20;4.33;;;0.90;99.90;;;;;;4140367;28;20348;-61
2021/12/14 00:20:00;;;;;;;7.33;4.90;;;0.80;99.90;;;;;;4142449;28;21042;-65
2021/12/14 00:22:16;;;;;;;7.67;4.87;;;0.80;99.90;;;;;;4141571;28;20302;-63
2021/12/14 00:24:20;;;;;;;6.67;4.60;;;0.70;99.90;;;;;;4142688;28;20678;-61
2021/12/14 00:26:22;;;;;;;8.43;4.70;;;0.80;99.90;;;;;;4142022;28;21071;-61
2021/12/14 00:28:27;;;;;;;6.53;4.20;;;0.70;99.90;;;;;;4142158;28;20275;-62
2021/12/14 00:30:29;;;;;;;8.57;5.37;;;0.70;99.90;;;;;;4141375;28;20255;-62
2021/12/14 00:32:34;;;;;;;5.97;3.90;;;0.70;99.90;;;;;;4141614;28;20683;-62
2021/12/14 00:34:42;;;;;;;6.97;4.47;;;0.70;99.90;;;;;;4142430;28;20296;-62
2021/12/14 00:36:43;;;;;;;6.50;4.20;;;0.70;99.90;;;;;;4141540;28;20283;-61
2021/12/14 00:38:46;;;;;;;6.47;4.10;;;0.70;99.90;;;;;;4142210;28;20726;-63
2021/12/14 00:40:51;;;;;;;5.60;3.90;;;0.70;99.90;;;;;;4140857;28;20263;-61
2021/12/14 00:42:53;;;;;;;6.60;3.90;;;0.70;99.90;;;;;;4141741;28;20809;-62
2021/12/14 00:44:55;;;;;;;7.53;4.27;;;0.70;99.90;;;;;;4141361;28;20259;-63
2021/12/14 00:46:56;;;;;;;6.53;4.20;;;0.70;99.90;;;;;;4142533;28;20275;-63
2021/12/14 00:48:57;;;;;;;5.90;3.63;;;0.70;99.90;;;;;;4140920;28;20322;-61
2021/12/14 00:51:00;;;;;;;6.60;4.27;;;0.60;99.90;;;;;;4142487;28;20268;-61
2021/12/14 00:53:02;;;;;;;5.63;3.83;;;0.70;99.90;;;;;;4140932;28;20326;-63
2021/12/14 00:55:06;;;;;;;5.87;4.10;;;0.70;99.90;;;;;;4141761;28;20325;-62
2021/12/14 00:57:08;;;;;;;6.73;4.23;;;0.70;99.90;;;;;;4140908;28;20287;-61
2021/12/14 00:59:13;;;;;;;5.60;3.60;;;0.70;99.90;;;;;;4142353;28;20295;-66
2021/12/14 01:01:41;;;;;;;6.23;3.70;;;0.60;99.90;;;;;;4140964;28;20681;-62
2021/12/14 01:03:47;;;;;;;7.30;4.63;;;0.70;99.90;;;;;;4142150;28;20279;-61
2021/12/14 01:05:50;;;;;;;6.83;4.13;;;0.70;99.90;;;;;;4140885;28;20321;-67
2021/12/14 01:07:51;;;;;;;5.90;3.20;;;0.80;99.90;;;;;;4141913;28;20263;-62
2021/12/14 01:09:57;;;;;;;4.87;3.33;;;0.70;99.90;;;;;;4140624;28;20275;-61
2021/12/14 01:12:05;;;;;;;5.60;3.73;;;0.80;99.90;;;;;;4141680;28;20279;-62
2021/12/14 01:14:30;;;;;;;9.43;5.27;;;0.80;99.90;;;;;;4140238;28;20255;-62
2021/12/14 01:16:51;;;;;;;6.33;3.60;;;0.80;99.90;;;;;;4142401;28;20330;-61
2021/12/14 01:19:03;;;;;;;5.87;3.70;;;0.80;99.90;;;;;;4140497;28;20807;-60
2021/12/14 01:23:33;;;;;;;4.63;3.13;;;0.80;99.90;;;;;;4141108;28;21248;-61
2021/12/14 01:25:37;;;;;;;6.43;3.08;;;0.80;99.90;;;;;;4141599;28;20291;-61
2021/12/14 01:27:52;;;;;;;4.33;3.00;;;0.80;99.90;;;;;;4138708;28;20038;-61
2021/12/14 01:29:55;;;;;;;5.70;3.17;;;0.70;99.90;;;;;;4141628;28;20271;-61
2021/12/14 01:32:00;;;;;;;4.57;3.10;;;0.70;99.90;;;;;;4140716;28;20277;-62
2021/12/14 01:34:05;;;;;;;5.07;3.30;;;0.70;99.90;;;;;;4142235;28;20329;-61
2021/12/14 01:36:21;;;;;;;9.13;4.90;;;0.70;99.90;;;;;;4140039;28;20260;-62
2021/12/14 01:42:51;;;;;;;7.33;3.63;;;0.70;99.90;;;;;;4141716;28;20739;-61
2021/12/14 01:45:12;;;;;;;5.90;4.43;;;0.70;99.90;;;;;;4140236;28;20283;-69
2021/12/14 01:47:24;;;;;;;6.53;4.32;;;0.60;99.90;;;;;;4141546;28;20303;-65
2021/12/14 01:49:29;;;;;;;6.47;4.00;;;0.70;99.90;;;;;;4140744;28;20065;-63
2021/12/14 01:51:31;;;;;;;6.80;4.17;;;0.60;99.90;;;;;;4141505;28;20303;-61
2021/12/14 01:53:34;;;;;;;6.40;4.17;;;0.60;99.90;;;;;;4140277;28;20671;-62
2021/12/14 01:55:39;;;;;;;4.60;3.33;;;0.60;99.90;;;;;;4141820;28;20391;-59
2021/12/14 01:57:42;;;;;;;6.67;4.40;;;0.60;99.90;;;;;;4140034;28;20283;-61
2021/12/14 01:59:45;;;;;;;6.93;4.50;;;0.50;99.90;;;;;;4141208;28;20730;-61
2021/12/14 02:01:55;;;;;;;7.90;4.10;;;0.50;99.90;;;;;;4140667;28;20306;-61
2021/12/14 02:04:00;;;;;;;6.17;4.07;;;0.50;99.90;;;;;;4141647;28;20325;-62
2021/12/14 02:06:02;;;;;;;6.37;3.70;;;0.60;99.90;;;;;;4140560;28;20271;-61
2021/12/14 02:08:15;;;;;;;6.03;3.73;;;0.50;99.90;;;;;;4141472;28;20334;-61
2021/12/14 02:10:26;;;;;;;4.37;3.13;;;0.50;99.90;;;;;;4139771;28;20321;-61
2021/12/14 02:12:29;;;;;;;6.53;4.10;;;0.50;99.90;;;;;;4140940;28;20276;-61
2021/12/14 02:14:30;;;;;;;7.50;4.57;;;0.50;99.90;;;;;;4139958;28;20751;-60
2021/12/14 02:16:32;;;;;;;6.73;4.20;;;0.60;99.90;;;;;;4140675;28;20279;-61
2021/12/14 02:18:34;;;;;;;8.40;3.70;;;0.60;99.90;;;;;;4140603;28;20287;-61
2021/12/14 02:20:37;;;;;;;8.63;4.40;;;0.50;99.90;;;;;;4140401;28;20289;-61
2021/12/14 02:22:39;;;;;;;7.33;3.83;;;0.50;99.90;;;;;;4140659;28;20275;-68
2021/12/14 02:24:44;;;;;;;6.27;3.90;;;0.50;99.90;;;;;;4138493;28;20314;-61
2021/12/14 02:26:47;;;;;;;5.37;3.77;;;0.50;99.90;;;;;;4141097;28;20821;-61
2021/12/14 02:28:48;;;;;;;5.43;3.63;;;0.50;99.90;;;;;;4139616;28;20321;-62
2021/12/14 02:30:53;;;;;;;3.83;3.00;;;0.60;99.90;;;;;;4141563;28;20275;-61
2021/12/14 02:32:55;;;;;;;5.77;3.77;;;0.50;99.90;;;;;;4139996;28;20326;-61
2021/12/14 02:35:00;;;;;;;6.30;3.73;;;0.50;99.90;;;;;;4141380;28;20280;-61
2021/12/14 02:37:01;;;;;;;7.00;4.10;;;0.50;99.90;;;;;;4140036;28;20830;-61
2021/12/14 02:39:09;;;;;;;8.07;4.97;;;0.50;99.90;;;;;;4140801;28;20265;-61
2021/12/14 02:41:11;;;;;;;6.80;4.23;;;0.50;99.90;;;;;;4142017;28;20321;-61
2021/12/14 02:43:12;;;;;;;10.50;4.90;;;0.50;99.90;;;;;;4144517;28;21180;-62
2021/12/14 02:45:14;;;;;;;6.57;4.53;;;0.50;99.90;;;;;;4142935;28;20850;-62
2021/12/14 02:47:17;;;;;;;7.57;4.57;;;0.50;99.90;;;;;;4144164;28;20252;-61
2021/12/14 02:49:23;;;;;;;7.93;4.87;;;0.40;99.90;;;;;;4142967;28;20271;-61
2021/12/14 02:51:32;;;;;;;7.50;4.63;;;0.40;99.90;;;;;;4144029;28;20353;-63
2021/12/14 02:53:33;;;;;;;7.23;4.00;;;0.30;99.90;;;;;;4142961;28;20276;-61
2021/12/14 02:55:34;;;;;;;8.40;4.33;;;0.30;99.90;;;;;;4144048;28;20267;-61
2021/12/14 02:57:39;;;;;;;7.00;4.47;;;0.30;99.90;;;;;;4143557;28;20710;-61
2021/12/14 02:59:42;;;;;;;7.57;4.40;;;0.30;99.90;;;;;;4142794;28;20275;-61
2021/12/14 03:01:47;;;;;;;6.67;4.47;;;0.40;99.90;;;;;;4142134;28;20314;-62
2021/12/14 03:03:48;;;;;;;10.37;6.23;;;0.40;99.90;;;;;;4143209;28;20763;-61
2021/12/14 03:05:50;;;;;;;8.37;5.07;;;0.40;99.90;;;;;;4143734;28;20814;-61
2021/12/14 03:08:01;;;;;;;7.90;4.87;;;0.50;99.90;;;;;;4142515;28;20350;-62
2021/12/14 03:12:39;;;;;;;6.37;4.50;;;0.40;99.90;;;;;;4142145;28;20330;-62
2021/12/14 03:14:49;;;;;;;7.70;4.57;;;0.40;99.90;;;;;;4143058;28;20853;-63
2021/12/14 03:16:50;;;;;;;11.70;4.63;;;0.40;99.90;;;;;;4142987;28;20316;-62
2021/12/14 03:18:53;;;;;;;11.03;6.30;;;0.40;99.90;;;;;;4143080;28;20296;-63
2021/12/14 03:21:27;;;;;;;9.07;5.40;;;0.40;99.90;;;;;;4142488;28;20268;-65
2021/12/14 03:23:54;;;;;;;13.57;5.90;;;0.40;99.90;;;;;;4142534;28;20276;-63
2021/12/14 03:25:57;;;;;;;7.83;4.70;;;0.40;99.90;;;;;;4142520;28;20267;-62
2021/12/14 03:27:59;;;;;;;9.80;4.80;;;0.40;99.90;;;;;;4142276;28;20276;-66
2021/12/14 03:30:00;;;;;;;9.60;5.63;;;0.30;99.90;;;;;;4142859;28;20298;-62
2021/12/14 03:32:02;;;;;;;10.67;6.27;;;0.30;99.90;;;;;;4142766;28;20267;-61
2021/12/14 03:34:05;;;;;;;10.57;5.90;;;0.40;99.90;;;;;;4142857;28;20268;-63
2021/12/14 03:36:12;;;;;;;7.93;4.43;;;0.30;99.90;;;;;;4143334;28;20671;-61
2021/12/14 03:38:36;;;;;;;7.13;4.43;;;0.40;99.90;;;;;;4142338;28;20287;-62
2021/12/14 03:40:38;;;;;;;7.97;5.10;;;0.40;99.90;;;;;;4142786;28;20263;-61
2021/12/14 03:42:41;;;;;;;9.47;5.27;;;0.40;99.90;;;;;;4142670;28;20279;-62
2021/12/14 03:44:46;;;;;;;8.00;5.60;;;0.40;99.90;;;;;;4142752;28;20330;-62
2021/12/14 03:46:56;;;;;;;7.87;4.87;;;0.40;99.90;;;;;;4141925;28;20267;-62
2021/12/14 03:48:57;;;;;;;12.13;7.03;;;0.40;99.90;;;;;;4143046;28;20783;-61
2021/12/14 03:50:59;;;;;;;10.13;5.83;;;0.40;99.90;;;;;;4141687;28;20482;-62
2021/12/14 03:53:00;;;;;;;15.60;7.63;;;0.40;99.90;;;;;;4143102;28;20333;-63
2021/12/14 03:55:11;;;;;;;42.23;18.50;;;0.40;99.90;;;;;;4141666;28;20349;-62
2021/12/14 03:57:13;;;;;;;13.93;8.10;;;0.40;99.90;;;;;;4142661;28;20318;-62
2021/12/14 03:59:15;;;;;;;31.50;15.97;;;0.40;99.90;;;;;;4141330;28;20279;-61
2021/12/14 04:01:27;;;;;;;43.20;21.63;;;0.40;99.90;;;;;;4142919;28;20280;-61
2021/12/14 04:03:30;;;;;;;17.97;10.03;;;0.40;99.90;;;;;;4141399;28;20809;-62
2021/12/14 04:05:33;;;;;;;23.30;12.43;;;0.40;99.90;;;;;;4143170;28;20807;-62
2021/12/14 04:07:36;;;;;;;19.00;10.80;;;0.40;99.90;;;;;;4141653;28;20267;-63
2021/12/14 04:09:39;;;;;;;29.83;17.83;;;0.30;99.90;;;;;;4142553;28;20275;-61
2021/12/14 04:11:42;;;;;;;29.53;17.50;;;0.30;99.90;;;;;;4141532;28;20565;-61
2021/12/14 04:13:48;;;;;;;18.93;10.90;;;0.20;99.90;;;;;;4142676;28;20310;-63
2021/12/14 04:15:50;;;;;;;19.80;11.40;;;0.20;99.90;;;;;;4141420;28;20291;-61
2021/12/14 04:17:51;;;;;;;25.27;14.33;;;0.20;99.90;;;;;;4142535;28;20345;-62
2021/12/14 04:19:53;;;;;;;30.43;17.33;;;0.20;99.90;;;;;;4141623;28;20287;-60
2021/12/14 04:21:58;;;;;;;26.70;14.93;;;0.20;99.90;;;;;;4141958;28;20316;-63
2021/12/14 04:23:59;;;;;;;22.30;14.00;;;0.20;99.90;;;;;;4142073;28;20325;-61
2021/12/14 04:26:02;;;;;;;26.93;16.77;;;0.20;99.90;;;;;;4141645;28;20353;-61
2021/12/14 04:28:10;;;;;;;27.13;16.73;;;0.20;99.90;;;;;;4142343;28;20263;-61
2021/12/14 04:30:17;;;;;;;20.90;13.30;;;0.20;99.90;;;;;;4141233;28;20309;-61
2021/12/14 04:32:20;;;;;;;21.27;13.57;;;0.20;99.90;;;;;;4141984;28;20298;-61
2021/12/14 04:34:21;;;;;;;17.10;10.57;;;0.20;99.90;;;;;;4140830;28;20321;-64
2021/12/14 04:36:27;;;;;;;24.03;14.60;;;0.20;99.90;;;;;;4142611;28;20805;-61
2021/12/14 04:38:31;;;;;;;15.97;10.53;;;0.20;99.90;;;;;;4141630;28;20299;-64
2021/12/14 04:51:59;;;;;;;20.30;11.10;;;0.30;99.90;;;;;;4141202;28;20326;-61
2021/12/14 04:54:02;;;;;;;14.83;9.37;;;0.30;99.90;;;;;;4141427;28;20334;-63
2021/12/14 04:56:05;;;;;;;12.93;7.87;;;0.40;99.90;;;;;;4140478;28;20695;-63
2021/12/14 04:58:07;;;;;;;11.63;6.83;;;0.30;99.90;;;;;;4140223;28;20307;-60
2021/12/14 05:00:23;;;;;;;12.57;6.83;;;0.30;99.90;;;;;;4140204;28;20672;-63
2021/12/14 05:02:32;;;;;;;10.80;6.57;;;0.20;99.90;;;;;;4141532;28;20263;-63
2021/12/14 05:04:33;;;;;;;14.50;7.03;;;0.10;99.90;;;;;;4139905;28;20333;-63
2021/12/14 05:06:50;;;;;;;14.73;6.73;;;0.00;99.90;;;;;;4141640;28;20268;-64
2021/12/14 05:11:23;;;;;;;13.03;6.93;;;-0.10;99.90;;;;;;4140594;28;20302;-62
2021/12/14 05:13:28;;;;;;;14.27;7.00;;;-0.10;99.90;;;;;;4140177;28;20671;-64
2021/12/14 05:15:29;;;;;;;11.53;6.40;;;-0.10;99.90;;;;;;4140420;28;20271;-62
2021/12/14 05:17:33;;;;;;;13.80;8.73;;;-0.10;99.90;;;;;;4139905;28;20326;-63
2021/12/14 05:19:37;;;;;;;12.37;7.60;;;-0.10;99.90;;;;;;4141039;28;20329;-63
2021/12/14 05:21:44;;;;;;;15.37;7.83;;;0.00;99.90;;;;;;4139908;28;20267;-62
2021/12/14 05:23:45;;;;;;;13.97;8.20;;;0.00;99.90;;;;;;4141604;28;20290;-63
2021/12/14 05:25:46;;;;;;;14.23;7.77;;;0.00;99.90;;;;;;4139824;28;20275;-63
2021/12/14 05:27:53;;;;;;;18.63;9.23;;;0.10;99.90;;;;;;4141552;28;20305;-62
2021/12/14 05:30:04;;;;;;;19.00;8.70;;;0.00;99.90;;;;;;4140227;28;20712;-62
2021/12/14 05:32:05;;;;;;;;;;;0.10;99.90;;;;;;4141035;28;20275;-62
2021/12/14 05:34:07;;;;;;;13.30;7.57;;;0.10;99.90;;;;;;4139881;28;19913;-62
2021/12/14 05:36:14;;;;;;;16.57;8.80;;;0.10;99.90;;;;;;4135839;28;20295;-62
2021/12/14 05:38:23;;;;;;;14.73;7.90;;;0.10;99.90;;;;;;4139739;28;20303;-65
2021/12/14 05:44:55;;;;;;;15.97;9.03;;;0.20;99.90;;;;;;4141275;28;20458;-62
2021/12/14 05:46:59;;;;;;;18.80;9.03;;;0.20;99.90;;;;;;4139876;28;20691;-63
2021/12/14 05:49:06;;;;;;;17.60;9.37;;;0.10;99.90;;;;;;4129299;28;20892;-62
2021/12/14 05:51:10;;;;;;;22.27;11.00;;;0.10;99.90;;;;;;4139121;28;20322;-62
2021/12/14 05:53:20;;;;;;;19.40;10.60;;;0.10;99.90;;;;;;4141101;28;20329;-63
2021/12/14 05:55:26;;;;;;;21.15;10.57;;;0.10;99.90;;;;;;4139354;28;21189;-64
2021/12/14 05:57:27;;;;;;;21.03;11.27;;;0.10;99.90;;;;;;4140336;28;20037;-62
2021/12/14 05:59:33;;;;;;;19.50;10.73;;;0.10;99.90;;;;;;4138059;28;20300;-62
2021/12/14 06:01:34;;;;;;;23.00;10.43;;;0.10;99.90;;;;;;4139969;28;20275;-63
2021/12/14 06:03:41;;;;;;;25.13;12.13;;;0.20;99.90;;;;;;4139595;28;20291;-63
2021/12/14 06:05:42;;;;;;;22.63;10.50;;;0.20;99.90;;;;;;4140253;28;20674;-63
2021/12/14 06:07:44;;;;;;;20.97;10.83;;;0.20;99.90;;;;;;4140802;28;20379;-64
2021/12/14 06:09:49;;;;;;;23.50;11.07;;;0.10;99.90;;;;;;4140028;28;20271;-64
2021/12/14 06:11:58;;;;;;;17.13;9.50;;;0.10;99.90;;;;;;4140395;28;20313;-64
2021/12/14 06:14:00;;;;;;;16.47;9.50;;;0.20;99.90;;;;;;4139383;28;20326;-65
2021/12/14 06:16:02;;;;;;;16.07;8.53;;;0.20;99.90;;;;;;4143568;28;20267;-69
2021/12/14 06:18:03;;;;;;;16.47;8.67;;;0.20;99.90;;;;;;4142821;28;20275;-64
2021/12/14 06:20:11;;;;;;;15.63;9.03;;;0.20;99.90;;;;;;4144068;28;20337;-64
2021/12/14 06:22:17;;;;;;;14.00;8.50;;;0.20;99.90;;;;;;4142762;28;20259;-64
2021/12/14 06:24:19;;;;;;;17.77;9.40;;;0.20;99.90;;;;;;4144293;28;21070;-66
2021/12/14 06:26:22;;;;;;;17.27;10.43;;;0.20;99.90;;;;;;4142364;28;20275;-64
2021/12/14 06:28:26;;;;;;;20.40;11.63;;;0.20;99.90;;;;;;4143829;28;20275;-63
2021/12/14 06:30:31;;;;;;;18.27;11.00;;;0.10;99.90;;;;;;4142220;28;20298;-64
2021/12/14 06:32:39;;;;;;;26.13;13.00;;;0.10;99.90;;;;;;4144312;28;20719;-64
2021/12/14 06:34:44;;;;;;;23.37;13.03;;;0.10;99.90;;;;;;4142839;28;20255;-61
2021/12/14 06:37:03;;;;;;;21.50;12.40;;;0.10;99.90;;;;;;4144610;28;20263;-63
2021/12/14 06:39:06;;;;;;;34.10;16.00;;;0.20;99.90;;;;;;4142271;28;20321;-62
2021/12/14 06:41:15;;;;;;;30.73;14.70;;;0.10;99.90;;;;;;4143708;28;20287;-63
2021/12/14 06:43:23;;;;;;;28.07;15.20;;;0.10;99.90;;;;;;4142347;28;20679;-62
2021/12/14 06:45:37;;;;;;;30.97;15.37;;;0.10;99.90;;;;;;4143290;28;20279;-62
2021/12/14 06:47:40;;;;;;;27.40;14.60;;;0.10;99.90;;;;;;4142070;28;20276;-62
2021/12/14 06:49:42;;;;;;;32.17;16.40;;;0.20;99.90;;;;;;4143963;28;20275;-62
2021/12/14 06:51:49;;;;;;;36.27;16.07;;;0.10;99.90;;;;;;4142238;28;20283;-63
2021/12/14 06:53:56;;;;;;;29.80;16.17;;;0.10;99.90;;;;;;4143523;28;20267;-67
2021/12/14 06:56:01;;;;;;;33.83;15.63;;;0.10;99.90;;;;;;4142085;28;20287;-64
2021/12/14 06:58:17;;;;;;;27.70;14.93;;;0.10;99.90;;;;;;4143367;28;20267;-64
2021/12/14 07:00:20;;;;;;;25.33;14.23;;;0.20;99.90;;;;;;4141762;28;20341;-61
2021/12/14 07:02:22;;;;;;;29.50;15.50;;;0.20;99.90;;;;;;4143615;28;20322;-62
2021/12/14 07:04:28;;;;;;;28.83;14.50;;;0.30;99.90;;;;;;4141970;28;20400;-62
2021/12/14 07:06:36;;;;;;;24.13;13.50;;;0.30;99.90;;;;;;4143127;28;20329;-66
2021/12/14 07:08:37;;;;;;;22.37;13.10;;;0.30;99.90;;;;;;4142313;28;20337;-63
2021/12/14 07:10:41;;;;;;;21.87;12.33;;;0.30;99.90;;;;;;4142554;28;20263;-62
2021/12/14 07:12:43;;;;;;;23.67;13.67;;;0.40;99.90;;;;;;4142538;28;20271;-63
2021/12/14 07:14:50;;;;;;;24.50;12.23;;;0.40;99.90;;;;;;4142208;28;20271;-63
2021/12/14 07:16:54;;;;;;;22.80;12.57;;;0.50;99.90;;;;;;4142656;28;20306;-63
2021/12/14 07:18:59;;;;;;;27.80;14.33;;;0.50;99.90;;;;;;4142355;28;20361;-63
2021/12/14 07:21:00;;;;;;;23.90;12.33;;;0.60;99.90;;;;;;4142633;28;20265;-62
2021/12/14 07:23:21;;;;;;;26.03;14.50;;;0.60;99.90;;;;;;4141433;28;20678;-62
2021/12/14 07:25:32;;;;;;;27.33;12.63;;;0.60;99.90;;;;;;4143027;28;20314;-62
2021/12/14 07:27:43;;;;;;;27.60;13.85;;;0.60;99.90;;;;;;4141607;28;20056;-65
2021/12/14 07:29:45;;;;;;;29.17;14.37;;;0.60;99.90;;;;;;4141178;28;20030;-64
2021/12/14 07:31:46;;;;;;;25.30;13.40;;;0.60;99.90;;;;;;4142079;28;20742;-62
2021/12/14 07:33:51;;;;;;;28.60;14.27;;;0.60;99.90;;;;;;4143498;28;20755;-63
2021/12/14 07:36:01;;;;;;;23.13;14.23;;;0.60;99.90;;;;;;4141524;28;20353;-64
2021/12/14 07:38:17;;;;;;;28.00;14.55;;;0.50;99.90;;;;;;4143164;28;20271;-64
2021/12/14 07:40:18;;;;;;;30.53;14.77;;;0.50;99.90;;;;;;4141376;28;20068;-64
2021/12/14 07:42:19;;;;;;;30.30;16.27;;;0.50;99.90;;;;;;4142951;28;20283;-64
2021/12/14 07:44:25;;;;;;;30.93;15.60;;;0.50;99.90;;;;;;4141107;28;20305;-62
2021/12/14 07:46:47;;;;;;;33.23;15.77;;;0.60;99.90;;;;;;4142662;28;20337;-62
2021/12/14 07:48:52;;;;;;;29.23;16.13;;;0.50;99.90;;;;;;4141259;28;20276;-62
2021/12/14 07:50:57;;;;;;;36.77;16.30;;;0.60;99.90;;;;;;4142695;28;20264;-63
2021/12/14 07:52:58;;;;;;;32.10;15.67;;;0.60;99.90;;;;;;4142053;28;20349;-65
2021/12/14 07:55:13;;;;;;;37.07;18.43;;;0.60;99.90;;;;;;4142560;28;20746;-64
2021/12/14 07:57:23;;;;;;;29.70;15.57;;;0.70;99.90;;;;;;4140832;28;20279;-63
2021/12/14 07:59:29;;;;;;;28.20;16.98;;;0.70;99.90;;;;;;4142378;28;20299;-63
2021/12/14 08:01:30;;;;;;;30.03;15.90;;;0.80;99.90;;;;;;4141761;28;20115;-63
2021/12/14 08:03:33;;;;;;;34.87;16.67;;;0.90;99.90;;;;;;4142325;28;20271;-63
2021/12/14 08:05:43;;;;;;;32.40;16.93;;;1.00;99.90;;;;;;4141432;28;20263;-63
2021/12/14 08:07:56;;;;;;;27.10;16.17;;;1.00;99.90;;;;;;4142921;28;20325;-64
2021/12/14 08:10:06;;;;;;;29.53;16.20;;;1.00;99.90;;;;;;4141916;28;20033;-64
2021/12/14 08:12:07;;;;;;;31.17;16.50;;;1.10;99.90;;;;;;4142747;28;20283;-66
2021/12/14 08:14:23;;;;;;;33.60;18.63;;;1.10;99.90;;;;;;4140928;28;20084;-64
2021/12/14 08:16:24;;;;;;;32.33;17.70;;;1.20;99.90;;;;;;4142593;28;20286;-62
2021/12/14 08:18:32;;;;;;;35.13;18.53;;;1.30;99.90;;;;;;4139587;28;20267;-61
2021/12/14 08:20:36;;;;;;;36.07;18.53;;;1.30;99.90;;;;;;4142506;28;20763;-63
2021/12/14 08:22:41;;;;;;;35.00;18.83;;;1.20;99.90;;;;;;4140609;28;20386;-63
2021/12/14 08:24:48;;;;;;;36.37;19.57;;;1.10;99.90;;;;;;4141891;28;20283;-62
2021/12/14 08:26:55;;;;;;;36.87;19.53;;;1.00;99.90;;;;;;4140921;28;20354;-62
2021/12/14 08:29:07;;;;;;;40.17;19.97;;;1.10;99.90;;;;;;4140476;28;20271;-61
2021/12/14 08:31:09;;;;;;;38.33;19.57;;;1.10;99.90;;;;;;4140658;28;20655;-63
2021/12/14 08:33:19;;;;;;;41.30;19.67;;;1.10;99.90;;;;;;4142367;28;20279;-62
2021/12/14 08:35:20;;;;;;;45.40;19.63;;;1.10;99.90;;;;;;4140446;28;20325;-65
2021/12/14 08:37:34;;;;;;;42.17;18.70;;;1.00;99.90;;;;;;4141764;28;20107;-62
2021/12/14 08:40:02;;;;;;;35.17;18.37;;;1.00;99.90;;;;;;4140225;28;20311;-63
2021/12/14 08:42:48;;;;;;;36.07;18.20;;;1.00;99.90;;;;;;4139661;28;20299;-63
2021/12/14 08:44:55;;;;;;;36.37;18.53;;;1.00;99.90;;;;;;4137727;28;20272;-66
2021/12/14 08:46:56;;;;;;;40.03;20.30;;;1.00;99.90;;;;;;4142298;28;20267;-62
2021/12/14 08:49:00;;;;;;;34.40;17.50;;;1.00;99.90;;;;;;4140646;28;20267;-62
2021/12/14 08:51:15;;;;;;;37.37;19.20;;;0.90;99.90;;;;;;4141704;28;20438;-62
2021/12/14 08:53:16;;;;;;;40.13;19.63;;;0.90;99.90;;;;;;4140725;28;20333;-64
2021/12/14 08:55:20;;;;;;;35.97;18.90;;;0.90;99.90;;;;;;4141900;28;20341;-63
2021/12/14 08:57:26;;;;;;;36.60;18.73;;;0.90;99.90;;;;;;4140789;28;20355;-63
2021/12/14 08:59:28;;;;;;;38.87;19.43;;;0.80;99.90;;;;;;4141423;28;20291;-62
2021/12/14 09:01:31;;;;;;;35.43;19.07;;;0.80;99.90;;;;;;4140233;28;20259;-63
2021/12/14 09:03:37;;;;;;;36.10;18.67;;;0.80;99.90;;;;;;4141451;28;20337;-62
2021/12/14 09:05:46;;;;;;;39.80;18.93;;;0.80;99.90;;;;;;4139885;28;20341;-62
2021/12/14 09:07:47;;;;;;;43.27;20.70;;;0.80;99.90;;;;;;4141781;28;20283;-62
2021/12/14 09:09:49;;;;;;;39.07;19.83;;;0.90;99.90;;;;;;4140748;28;20291;-64
2021/12/14 09:12:07;;;;;;;36.00;18.17;;;0.90;99.90;;;;;;4141171;28;20283;-62
2021/12/14 09:14:13;;;;;;;37.83;18.33;;;0.90;99.90;;;;;;4140229;28;20329;-61
2021/12/14 09:16:22;;;;;;;39.50;18.57;;;0.90;99.90;;;;;;4141124;28;20279;-62
2021/12/14 09:18:27;;;;;;;43.40;20.53;;;1.00;99.90;;;;;;4139839;28;20873;-63
2021/12/14 09:20:34;;;;;;;40.43;20.93;;;1.00;99.90;;;;;;4140662;28;20362;-64
2021/12/14 09:22:41;;;;;;;36.97;19.80;;;1.10;99.90;;;;;;4139886;28;20263;-62
2021/12/14 09:24:43;;;;;;;36.10;19.87;;;1.10;99.90;;;;;;4140544;28;20267;-62
2021/12/14 09:26:49;;;;;;;35.93;19.10;;;1.20;99.90;;;;;;4140245;28;20333;-63
2021/12/14 09:28:51;;;;;;;34.03;18.10;;;1.30;99.90;;;;;;4139859;28;20276;-65
2021/12/14 09:30:56;;;;;;;38.87;18.67;;;1.40;99.90;;;;;;4140970;28;20251;-62
2021/12/14 09:32:58;;;;;;;36.40;18.37;;;1.50;99.90;;;;;;4139831;28;20271;-62
2021/12/14 09:35:01;;;;;;;33.50;17.97;;;1.50;99.90;;;;;;4140905;28;20771;-63
2021/12/14 09:37:04;;;;;;;30.60;16.70;;;1.50;99.90;;;;;;4139793;28;20271;-62
2021/12/14 09:39:17;;;;;;;32.60;16.33;;;1.50;99.90;;;;;;4141729;28;20368;-62
2021/12/14 09:41:22;;;;;;;32.03;16.77;;;1.50;99.90;;;;;;4139547;28;20338;-62
2021/12/14 09:43:23;;;;;;;32.93;17.80;;;1.50;99.90;;;;;;4140691;28;20321;-61
2021/12/14 09:45:33;;;;;;;36.23;19.27;;;1.50;99.90;;;;;;4139969;28;20279;-62
2021/12/14 09:47:35;;;;;;;36.15;17.65;;;1.50;99.90;;;;;;4141070;28;20279;-61
2021/12/14 09:49:37;;;;;;;31.00;16.37;;;1.50;99.90;;;;;;4139634;28;20045;-62
2021/12/14 09:51:47;;;;;;;32.53;17.10;;;1.50;99.90;;;;;;4140456;28;20690;-63
2021/12/14 09:53:52;;;;;;;27.63;15.30;;;1.50;99.90;;;;;;4139590;28;20275;-62
2021/12/14 09:55:56;;;;;;;23.33;12.80;;;1.40;99.90;;;;;;4140550;28;20684;-62
2021/12/14 09:58:03;;;;;;;26.97;13.00;;;1.40;99.90;;;;;;4138240;28;20283;-63
2021/12/14 10:00:13;;;;;;;23.97;13.67;;;1.40;99.90;;;;;;4140704;28;20295;-61
2021/12/14 10:02:36;;;;;;;23.60;13.37;;;1.40;99.90;;;;;;4139812;28;20272;-62
2021/12/14 10:04:53;;;;;;;24.70;13.63;;;1.40;99.90;;;;;;4140854;28;20267;-63
2021/12/14 10:06:58;;;;;;;22.80;12.93;;;1.40;99.90;;;;;;4139543;28;20298;-62
2021/12/14 10:09:07;;;;;;;25.37;13.47;;;1.50;99.90;;;;;;4141704;28;20275;-63
2021/12/14 10:11:24;;;;;;;24.00;12.23;;;1.50;99.90;;;;;;4139625;28;20263;-65
2021/12/14 10:13:27;;;;;;;22.63;11.10;;;1.40;99.90;;;;;;4140737;28;20315;-63
2021/12/14 10:15:33;;;;;;;22.13;11.77;;;1.40;99.90;;;;;;4139679;28;20267;-64
2021/12/14 10:17:35;;;;;;;23.40;12.83;;;1.40;99.90;;;;;;4141175;28;20271;-65
2021/12/14 10:19:37;;;;;;;22.63;12.20;;;1.40;99.90;;;;;;4139169;28;20295;-63
2021/12/14 10:21:45;;;;;;;19.80;10.33;;;1.30;99.90;;;;;;4140906;28;20267;-63
2021/12/14 10:23:50;;;;;;;21.50;10.87;;;1.40;99.90;;;;;;4139709;28;20341;-71
2021/12/14 10:25:54;;;;;;;18.40;10.10;;;1.40;99.90;;;;;;4140192;28;20306;-62
2021/12/14 10:27:56;;;;;;;19.93;10.17;;;1.40;99.90;;;;;;4138586;28;20353;-65
2021/12/14 10:29:59;;;;;;;21.63;11.07;;;1.50;99.90;;;;;;4139944;28;20755;-62
2021/12/14 10:32:09;;;;;;;20.53;11.53;;;1.50;99.90;;;;;;4139106;28;20294;-62
2021/12/14 10:34:17;;;;;;;19.70;11.32;;;1.50;99.90;;;;;;4140168;28;20318;-62
2021/12/14 10:36:30;;;;;;;20.07;11.27;;;1.50;99.90;;;;;;4139453;28;20080;-64
2021/12/14 10:39:04;;;;;;;17.90;8.83;;;1.50;99.90;;;;;;4139678;28;20283;-63
2021/12/14 10:43:39;;;;;;;21.30;10.47;;;1.40;99.90;;;;;;4140658;28;20333;-63
2021/12/14 10:45:50;;;;;;;16.33;9.77;;;1.50;99.90;;;;;;4138469;28;20279;-62
2021/12/14 10:47:52;;;;;;;24.50;11.37;;;1.50;99.90;;;;;;4140079;28;20267;-62
2021/12/14 10:49:55;;;;;;;17.70;9.43;;;1.50;99.90;;;;;;4139584;28;20333;-63
2021/12/14 10:52:00;;;;;;;15.03;9.33;;;1.50;99.90;;;;;;4140756;28;20268;-62
2021/12/14 10:54:06;;;;;;;15.23;8.93;;;1.60;99.90;;;;;;4138758;28;20328;-62
2021/12/14 10:56:15;;;;;;;13.97;8.20;;;1.50;99.90;;;;;;4139966;28;20359;-63
2021/12/14 10:58:20;;;;;;;14.47;8.60;;;1.50;99.90;;;;;;4138888;28;20330;-62
2021/12/14 11:00:31;;;;;;;16.10;9.70;;;1.60;99.90;;;;;;4139445;28;20695;-62
2021/12/14 11:02:39;;;;;;;18.40;10.07;;;1.60;99.90;;;;;;4139645;28;20406;-63
2021/12/14 11:04:53;;;;;;;19.67;10.67;;;1.60;99.90;;;;;;4142545;28;20323;-62
2021/12/14 11:06:57;;;;;;;19.20;10.30;;;1.70;99.90;;;;;;4142145;28;20294;-62
2021/12/14 11:11:14;;;;;;;21.67;11.82;;;1.70;99.90;;;;;;4141392;28;20341;-63
2021/12/14 11:13:15;;;;;;;24.20;12.47;;;1.80;99.90;;;;;;4142434;28;20084;-62
2021/12/14 11:15:22;;;;;;;22.20;11.07;;;2.00;99.90;;;;;;4141400;28;20279;-61
2021/12/14 11:19:47;;;;;;;17.87;9.60;;;2.00;99.90;;;;;;4141378;28;20373;-62
2021/12/14 11:21:48;;;;;;;18.23;10.17;;;1.90;99.90;;;;;;4142742;28;20751;-64
2021/12/14 11:23:52;;;;;;;19.60;10.63;;;1.90;99.90;;;;;;4141792;28;20301;-62
2021/12/14 11:26:18;;;;;;;16.40;10.33;;;1.80;99.90;;;;;;4142362;28;20256;-67
2021/12/14 11:28:19;;;;;;;17.93;9.57;;;1.90;99.90;;;;;;4142331;28;20279;-63
2021/12/14 11:30:24;;;;;;;24.53;10.77;;;1.90;99.90;;;;;;4142281;28;20287;-64